Time;durP1;ratioP1;P1;durP2;ratioP2;P2;SDS_P1;SDS_P2;PMS_P1;PMS_P2;Temp;Humidity;BMP_temperature;BMP_pressure;BME280_temperature;BME280_humidity;BME280_pressure;Samples;Min_cycle;Max_cycle;Signal;HPM_P1;HPM_P2
2022/11/15 00:01:44;;;;;;;28.70;23.08;;;10.30;99.90;;;;;;6122371;23;20153;-59
2022/11/15 00:04:10;;;;;;;25.13;22.65;;;10.30;99.90;;;;;;6122287;23;20184;-60
2022/11/15 01:14:51;;;;;;;30.70;27.50;;;10.10;99.90;;;;;;5066939;28;21093;-60
2022/11/15 01:17:17;;;;;;;29.98;27.02;;;10.80;99.90;;;;;;5067088;28;20187;-60
2022/11/15 01:19:43;;;;;;;28.65;25.77;;;10.90;99.90;;;;;;5066939;28;20203;-60
2022/11/15 01:22:08;;;;;;;27.38;24.60;;;10.90;99.90;;;;;;5066044;28;20171;-60
2022/11/15 01:24:34;;;;;;;27.48;24.67;;;11.00;99.90;;;;;;5066951;28;20179;-59
2022/11/15 01:26:59;;;;;;;25.40;22.90;;;10.90;99.90;;;;;;5065556;28;20243;-59
2022/11/15 01:29:25;;;;;;;25.35;22.85;;;11.00;99.90;;;;;;5065554;28;20182;-60
2022/11/15 01:31:53;;;;;;;25.05;22.65;;;11.00;99.90;;;;;;5066768;28;20672;-60
2022/11/15 01:34:19;;;;;;;24.52;21.98;;;11.10;99.90;;;;;;5066467;27;20205;-60
2022/11/15 01:36:44;;;;;;;24.15;21.63;;;11.10;99.90;;;;;;5065387;28;20183;-59
2022/11/15 01:39:10;;;;;;;22.40;20.10;;;11.10;99.90;;;;;;5065347;28;20179;-61
2022/11/15 01:41:36;;;;;;;23.52;21.08;;;11.10;99.90;;;;;;5066470;28;20182;-59
2022/11/15 01:44:40;;;;;;;22.60;20.30;;;11.10;99.90;;;;;;5066762;28;20265;-60
2022/11/15 01:47:12;;;;;;;21.50;19.25;;;11.10;99.90;;;;;;5066510;28;20652;-59
2022/11/15 01:49:43;;;;;;;23.05;20.80;;;11.20;99.90;;;;;;5066487;28;20167;-59
2022/11/15 01:52:12;;;;;;;20.85;18.77;;;11.20;99.90;;;;;;5066338;28;20195;-59
2022/11/15 01:54:38;;;;;;;19.98;18.10;;;11.20;99.90;;;;;;5065250;28;20183;-60
2022/11/15 01:57:09;;;;;;;21.75;19.48;;;11.20;99.90;;;;;;5066712;28;20234;-59
2022/11/15 01:59:36;;;;;;;19.77;17.98;;;11.20;99.90;;;;;;5066502;28;20167;-59
2022/11/15 02:02:02;;;;;;;19.55;17.65;;;11.20;99.90;;;;;;5066321;28;20228;-59
2022/11/15 02:04:31;;;;;;;19.60;17.70;;;11.30;99.90;;;;;;5048207;28;20225;-59
2022/11/15 02:06:58;;;;;;;19.40;17.50;;;11.30;99.90;;;;;;5066109;28;20224;-59
2022/11/15 02:09:24;;;;;;;18.85;17.05;;;11.20;99.90;;;;;;5066047;28;20252;-59
2022/11/15 02:11:52;;;;;;;18.83;17.00;;;11.30;99.90;;;;;;5066290;28;20213;-60
2022/11/15 02:14:19;;;;;;;19.48;16.98;;;11.30;99.90;;;;;;5059625;28;20610;-60
2022/11/15 02:16:59;;;;;;;16.63;15.10;;;11.30;99.90;;;;;;5052556;28;20227;-59
2022/11/15 02:19:31;;;;;;;18.20;16.40;;;11.30;99.90;;;;;;5052759;28;20181;-60
2022/11/15 02:22:25;;;;;;;17.02;15.23;;;11.30;99.90;;;;;;5052907;28;20239;-59
2022/11/15 02:25:03;;;;;;;18.55;16.70;;;11.30;99.90;;;;;;5052472;28;20683;-60
2022/11/15 02:27:56;;;;;;;17.60;15.80;;;11.40;99.90;;;;;;5052880;28;20197;-59
2022/11/15 02:30:43;;;;;;;18.85;16.35;;;11.40;99.90;;;;;;5052436;28;20171;-59
2022/11/15 02:33:41;;;;;;;17.42;15.52;;;11.30;99.90;;;;;;5052342;28;20522;-60
2022/11/15 02:36:21;;;;;;;17.63;15.82;;;11.40;99.90;;;;;;5052493;28;20641;-59
2022/11/15 02:39:13;;;;;;;18.15;16.25;;;11.30;99.90;;;;;;5052367;28;20259;-60
2022/11/15 02:42:01;;;;;;;18.40;16.50;;;11.30;99.90;;;;;;5052216;28;20210;-59
2022/11/15 02:44:45;;;;;;;17.10;15.50;;;11.30;99.90;;;;;;5052311;28;20180;-59
2022/11/15 02:47:16;;;;;;;16.90;15.20;;;11.40;99.90;;;;;;5051370;28;20640;-59
2022/11/15 02:49:46;;;;;;;17.70;15.90;;;11.40;99.90;;;;;;5052060;28;20645;-59
2022/11/15 02:52:19;;;;;;;17.92;16.10;;;11.40;99.90;;;;;;5052055;28;20199;-59
2022/11/15 02:54:59;;;;;;;16.40;14.80;;;11.30;99.90;;;;;;5052281;28;20203;-59
2022/11/15 02:57:44;;;;;;;18.90;16.42;;;11.30;99.90;;;;;;5050644;28;20190;-63
2022/11/15 03:00:35;;;;;;;17.23;15.40;;;11.40;99.90;;;;;;5052077;28;20163;-59
2022/11/15 03:03:50;;;;;;;17.55;15.50;;;11.30;99.90;;;;;;5052102;28;20167;-61
2022/11/15 03:06:27;;;;;;;15.88;14.10;;;11.30;99.90;;;;;;5052087;28;20287;-59
2022/11/15 03:09:08;;;;;;;16.05;14.55;;;11.30;99.90;;;;;;5051841;28;20171;-59
2022/11/15 03:11:40;;;;;;;15.10;13.60;;;11.30;99.90;;;;;;5051056;28;20179;-60
2022/11/15 03:14:31;;;;;;;16.08;14.57;;;11.30;99.90;;;;;;5051755;28;20298;-59
2022/11/15 03:17:16;;;;;;;14.90;13.43;;;11.30;99.90;;;;;;5051764;28;20181;-59
2022/11/15 03:19:48;;;;;;;15.18;13.57;;;11.30;99.90;;;;;;5051906;28;20167;-59
2022/11/15 03:22:19;;;;;;;15.50;13.07;;;11.20;99.90;;;;;;5051553;28;20298;-60
2022/11/15 03:24:50;;;;;;;17.63;13.60;;;11.30;99.90;;;;;;5050361;28;20171;-60
2022/11/15 03:27:21;;;;;;;14.68;11.73;;;11.30;99.90;;;;;;5050542;28;20633;-60
2022/11/15 03:29:56;;;;;;;12.85;11.65;;;11.20;99.90;;;;;;5051476;28;20266;-61
2022/11/15 03:32:27;;;;;;;13.25;11.82;;;11.20;99.90;;;;;;5051549;28;20175;-59
2022/11/15 03:34:57;;;;;;;13.40;12.05;;;11.30;99.90;;;;;;5051569;28;20171;-59
2022/11/15 03:37:30;;;;;;;14.00;12.20;;;11.30;99.90;;;;;;5051534;28;20167;-59
2022/11/15 03:39:56;;;;;;;14.70;13.10;;;11.30;99.90;;;;;;5050080;28;20179;-59
2022/11/15 03:42:30;;;;;;;13.13;11.82;;;11.30;99.90;;;;;;5050354;28;20709;-59
2022/11/15 03:45:05;;;;;;;13.02;11.02;;;11.30;99.90;;;;;;5051495;28;20171;-59
2022/11/15 03:47:56;;;;;;;12.93;11.60;;;11.30;99.90;;;;;;5050161;28;20227;-60
2022/11/15 03:50:23;;;;;;;12.43;11.13;;;11.30;99.90;;;;;;5051203;28;20547;-59
2022/11/15 03:52:49;;;;;;;14.02;11.25;;;11.20;99.90;;;;;;5050882;28;20633;-63
2022/11/15 03:55:18;;;;;;;12.23;10.70;;;11.20;99.90;;;;;;5051170;28;20270;-59
2022/11/15 03:57:44;;;;;;;11.73;10.48;;;11.20;99.90;;;;;;5051093;28;20199;-59
2022/11/15 04:00:11;;;;;;;13.93;10.82;;;11.20;99.90;;;;;;5050931;28;20183;-59
2022/11/15 04:02:37;;;;;;;12.82;10.77;;;11.20;99.90;;;;;;5050958;28;20175;-59
2022/11/15 04:05:03;;;;;;;11.02;10.00;;;11.20;99.90;;;;;;5050881;28;20629;-60
2022/11/15 04:07:29;;;;;;;11.98;10.68;;;11.10;99.90;;;;;;5050798;28;20199;-59
2022/11/15 04:10:03;;;;;;;11.10;9.93;;;11.10;99.90;;;;;;5051152;28;20575;-59
2022/11/15 04:12:35;;;;;;;12.73;9.27;;;11.10;99.90;;;;;;5049396;28;20330;-61
2022/11/15 04:15:10;;;;;;;10.68;9.55;;;11.10;99.90;;;;;;5049761;28;20235;-59
2022/11/15 04:17:40;;;;;;;10.80;9.32;;;11.00;99.90;;;;;;5049375;28;20204;-59
2022/11/15 04:25:55;;;;;;;12.88;10.48;;;11.00;99.90;;;;;;5050962;28;20179;-59
2022/11/15 04:28:21;;;;;;;12.30;9.90;;;10.90;99.90;;;;;;5049354;28;20254;-59
2022/11/15 04:30:47;;;;;;;12.48;9.23;;;10.90;99.90;;;;;;5050578;28;20244;-59
2022/11/15 04:33:13;;;;;;;11.45;8.95;;;11.00;99.90;;;;;;5033031;28;20207;-61
2022/11/15 04:35:39;;;;;;;11.13;9.13;;;11.00;99.90;;;;;;5050516;28;20175;-59
2022/11/15 04:38:07;;;;;;;10.02;9.02;;;11.00;99.90;;;;;;5050301;28;20201;-59
2022/11/15 04:40:33;;;;;;;10.85;9.25;;;11.00;99.90;;;;;;5050225;28;20171;-59
2022/11/15 04:42:59;;;;;;;11.63;9.23;;;11.00;99.90;;;;;;5049123;28;20183;-59
2022/11/15 04:45:25;;;;;;;10.80;8.82;;;10.90;99.90;;;;;;5050395;28;20179;-61
2022/11/15 04:47:51;;;;;;;9.90;8.80;;;10.90;99.90;;;;;;5050353;28;20175;-59
2022/11/15 04:50:16;;;;;;;9.82;8.27;;;11.00;99.90;;;;;;5050368;28;20629;-59
2022/11/15 04:52:49;;;;;;;10.65;8.63;;;11.00;99.90;;;;;;5048938;28;20202;-60
2022/11/15 04:55:15;;;;;;;9.32;8.25;;;10.90;99.90;;;;;;5050299;28;20664;-59
2022/11/15 04:57:41;;;;;;;10.07;8.02;;;11.00;99.90;;;;;;5050140;28;20176;-59
2022/11/15 05:00:09;;;;;;;9.40;7.90;;;10.90;99.90;;;;;;5049083;28;20221;-59
2022/11/15 05:05:19;;;;;;;11.43;7.63;;;10.80;99.90;;;;;;5050440;28;20211;-59
2022/11/15 05:07:45;;;;;;;8.07;6.63;;;10.70;99.90;;;;;;5049954;28;20175;-59
2022/11/15 05:10:11;;;;;;;8.73;6.78;;;10.60;99.90;;;;;;5048755;28;20625;-59
2022/11/15 05:12:37;;;;;;;7.13;6.43;;;10.50;99.90;;;;;;5049988;28;20202;-64
2022/11/15 05:15:03;;;;;;;8.38;6.68;;;10.50;99.90;;;;;;5050179;28;20254;-60
2022/11/15 05:17:29;;;;;;;10.75;6.95;;;10.50;99.90;;;;;;5049915;28;20637;-60
2022/11/15 05:19:54;;;;;;;9.05;6.90;;;10.40;99.90;;;;;;5050106;28;20175;-59
2022/11/15 05:22:20;;;;;;;7.63;6.75;;;10.40;99.90;;;;;;5049946;28;20762;-59
2022/11/15 05:24:46;;;;;;;8.20;6.55;;;10.40;99.90;;;;;;5048789;28;20186;-59
2022/11/15 05:27:12;;;;;;;7.30;6.60;;;10.30;99.90;;;;;;5049900;28;20176;-59
2022/11/15 05:29:37;;;;;;;10.20;7.18;;;10.30;99.90;;;;;;5048773;28;20553;-60
2022/11/15 05:32:08;;;;;;;9.25;6.55;;;10.30;99.90;;;;;;5048901;28;20175;-59
2022/11/15 05:34:34;;;;;;;7.50;6.25;;;10.30;99.90;;;;;;5048701;28;20187;-59
2022/11/15 05:36:59;;;;;;;8.93;6.93;;;10.30;99.90;;;;;;5048292;28;20208;-59
2022/11/15 05:39:25;;;;;;;8.48;5.80;;;10.20;99.90;;;;;;5050060;28;20630;-61
2022/11/15 05:42:00;;;;;;;8.23;5.72;;;10.20;99.90;;;;;;5049739;28;20171;-59
2022/11/15 05:44:27;;;;;;;7.07;6.40;;;10.20;99.90;;;;;;5048470;28;20527;-60
2022/11/15 05:46:55;;;;;;;8.77;5.90;;;10.10;99.90;;;;;;5048541;28;20261;-59
2022/11/15 05:49:27;;;;;;;6.32;5.70;;;10.00;99.90;;;;;;5050094;28;20203;-59
2022/11/15 05:51:53;;;;;;;6.97;5.88;;;10.00;99.90;;;;;;5051927;28;20171;-59
2022/11/15 05:54:21;;;;;;;9.07;6.00;;;9.90;99.90;;;;;;5052808;28;20282;-59
2022/11/15 05:56:48;;;;;;;8.60;6.20;;;9.90;99.90;;;;;;5053096;28;20176;-59
2022/11/15 05:59:14;;;;;;;7.97;5.78;;;10.00;99.90;;;;;;5052929;28;20596;-59
2022/11/15 06:01:40;;;;;;;7.25;5.80;;;9.90;99.90;;;;;;5035039;28;20340;-59
2022/11/15 06:04:06;;;;;;;8.07;5.93;;;9.90;99.90;;;;;;5051475;28;20187;-59
2022/11/15 06:06:31;;;;;;;7.07;5.60;;;10.00;99.90;;;;;;5053206;28;20688;-59
2022/11/15 06:08:57;;;;;;;6.35;5.50;;;10.00;99.90;;;;;;5052888;28;20182;-59
2022/11/15 06:11:23;;;;;;;7.28;4.95;;;10.10;99.90;;;;;;5053012;28;20187;-58
2022/11/15 06:13:48;;;;;;;8.38;4.75;;;10.10;99.90;;;;;;5052463;28;20619;-59
2022/11/15 06:16:14;;;;;;;10.32;4.75;;;10.00;99.90;;;;;;5052496;28;20194;-60
2022/11/15 06:18:39;;;;;;;6.22;4.80;;;10.00;99.90;;;;;;5052393;28;20626;-59
2022/11/15 06:21:05;;;;;;;6.28;4.70;;;10.00;99.90;;;;;;5051274;28;20608;-59
2022/11/15 06:23:33;;;;;;;6.72;4.53;;;10.00;99.90;;;;;;5050886;28;20190;-60
2022/11/15 06:26:00;;;;;;;5.70;4.78;;;10.00;99.90;;;;;;5052331;28;20542;-59
2022/11/15 06:28:32;;;;;;;7.78;4.75;;;10.10;99.90;;;;;;5049652;28;20172;-59
2022/11/15 06:31:10;;;;;;;8.25;4.80;;;10.20;99.90;;;;;;5031166;28;20176;-59
2022/11/15 06:33:37;;;;;;;5.75;4.50;;;10.20;99.90;;;;;;5030737;28;20248;-59
2022/11/15 06:36:04;;;;;;;8.15;5.18;;;10.20;99.90;;;;;;5032075;28;20573;-58
2022/11/15 06:38:30;;;;;;;6.50;4.95;;;10.20;99.90;;;;;;5032292;28;20630;-58
2022/11/15 06:41:02;;;;;;;5.55;4.57;;;10.20;99.90;;;;;;5032259;28;20260;-58
2022/11/15 06:43:28;;;;;;;6.15;4.20;;;10.20;99.90;;;;;;5032124;28;20180;-58
2022/11/15 06:45:53;;;;;;;8.20;4.50;;;10.10;99.90;;;;;;5032676;28;20225;-58
2022/11/15 06:48:19;;;;;;;5.22;4.38;;;10.10;99.90;;;;;;5032324;28;20180;-58
2022/11/15 06:50:51;;;;;;;5.68;4.10;;;10.00;99.90;;;;;;5032252;28;20251;-58
2022/11/15 06:53:17;;;;;;;8.43;4.50;;;10.00;99.90;;;;;;5030963;28;20214;-58
2022/11/15 06:55:43;;;;;;;5.68;3.83;;;9.90;99.90;;;;;;5031963;28;20259;-58
2022/11/15 06:58:08;;;;;;;5.43;4.13;;;9.80;99.90;;;;;;5030718;28;20203;-58
2022/11/15 07:00:34;;;;;;;5.38;3.70;;;9.80;99.90;;;;;;5030897;28;20533;-58
2022/11/15 07:03:00;;;;;;;6.93;4.10;;;9.80;99.90;;;;;;5032075;28;20653;-58
2022/11/15 07:05:26;;;;;;;6.45;4.13;;;9.70;99.90;;;;;;5031944;28;20172;-59
2022/11/15 07:07:56;;;;;;;4.03;3.60;;;9.60;99.90;;;;;;5031799;28;20276;-58
2022/11/15 07:10:24;;;;;;;5.72;3.50;;;9.60;99.90;;;;;;5031868;28;20187;-58
2022/11/15 07:12:51;;;;;;;6.95;3.78;;;9.60;99.90;;;;;;5030361;28;20216;-58
2022/11/15 07:15:18;;;;;;;6.93;3.85;;;9.60;99.90;;;;;;5031997;28;20165;-58
2022/11/15 07:17:43;;;;;;;6.00;3.40;;;9.50;99.90;;;;;;5032113;28;20180;-58
2022/11/15 07:20:10;;;;;;;7.20;4.13;;;9.50;99.90;;;;;;5031812;28;20660;-58
2022/11/15 07:22:35;;;;;;;7.53;3.88;;;9.50;99.90;;;;;;5030633;28;20184;-58
2022/11/15 07:25:01;;;;;;;7.32;4.20;;;9.60;99.90;;;;;;5030338;28;20180;-58
2022/11/15 07:27:27;;;;;;;5.03;3.75;;;9.60;99.90;;;;;;5032127;28;20179;-58
2022/11/15 07:29:52;;;;;;;7.05;3.97;;;9.60;99.90;;;;;;5031693;28;20172;-58
2022/11/15 07:32:18;;;;;;;4.97;4.05;;;9.60;99.90;;;;;;5031408;28;20201;-58
2022/11/15 07:34:45;;;;;;;4.60;4.20;;;9.60;99.90;;;;;;5030413;28;20677;-58
2022/11/15 07:37:11;;;;;;;5.00;4.50;;;9.60;99.90;;;;;;5031350;28;20176;-58
2022/11/15 07:39:37;;;;;;;7.43;5.13;;;9.60;99.90;;;;;;5031351;28;20169;-59
2022/11/15 07:44:46;;;;;;;6.45;5.80;;;9.60;99.90;;;;;;5030640;28;20183;-58
2022/11/15 07:47:12;;;;;;;7.95;6.28;;;9.70;99.90;;;;;;5013590;28;20184;-58
2022/11/15 07:49:38;;;;;;;7.95;7.15;;;9.80;99.90;;;;;;5031147;28;20640;-58
2022/11/15 07:52:04;;;;;;;9.98;7.45;;;9.70;99.90;;;;;;5013627;28;20180;-58
2022/11/15 07:54:29;;;;;;;10.07;6.65;;;9.80;99.90;;;;;;5029862;28;20573;-58
2022/11/15 07:56:55;;;;;;;9.77;6.82;;;9.80;99.90;;;;;;5013911;28;20181;-58
2022/11/15 07:59:20;;;;;;;7.38;5.70;;;9.80;99.90;;;;;;5030330;28;20180;-59
2022/11/15 08:01:46;;;;;;;6.72;5.88;;;9.90;99.90;;;;;;5029983;28;20172;-58
2022/11/15 08:04:12;;;;;;;7.43;5.32;;;9.90;99.90;;;;;;5031096;28;20186;-58
2022/11/15 08:06:37;;;;;;;8.40;5.78;;;10.00;99.90;;;;;;5030992;28;20259;-58
2022/11/15 08:09:03;;;;;;;6.50;5.40;;;10.10;99.90;;;;;;5030782;28;20218;-58
2022/11/15 08:11:29;;;;;;;6.70;4.78;;;10.10;99.90;;;;;;5029881;28;20187;-58
2022/11/15 08:13:55;;;;;;;5.95;4.47;;;10.20;99.90;;;;;;5030109;28;20681;-58
2022/11/15 08:16:20;;;;;;;8.13;4.57;;;10.30;99.90;;;;;;5030936;28;20179;-57
2022/11/15 08:18:46;;;;;;;5.00;4.03;;;10.40;99.90;;;;;;5030794;28;20585;-58
2022/11/15 08:21:17;;;;;;;3.72;3.30;;;10.40;99.90;;;;;;5030753;28;20179;-58
2022/11/15 08:23:43;;;;;;;5.82;3.70;;;10.40;99.90;;;;;;5030648;28;20176;-58
2022/11/15 08:26:09;;;;;;;5.25;3.80;;;10.40;99.90;;;;;;5030626;28;20700;-58
2022/11/15 08:28:35;;;;;;;4.53;3.58;;;10.50;99.90;;;;;;5030701;28;20635;-58
2022/11/15 08:31:00;;;;;;;6.10;4.15;;;10.60;99.90;;;;;;5029468;28;20677;-61
2022/11/15 08:33:26;;;;;;;5.38;3.55;;;10.60;99.90;;;;;;5029418;28;20202;-58
2022/11/15 08:35:52;;;;;;;5.80;3.70;;;10.60;99.90;;;;;;5030493;28;20183;-58
2022/11/15 08:38:17;;;;;;;4.45;3.65;;;10.60;99.90;;;;;;5030727;28;20209;-58
2022/11/15 08:40:43;;;;;;;4.00;3.00;;;10.50;99.90;;;;;;5029543;28;20259;-58
2022/11/15 08:43:09;;;;;;;9.52;3.55;;;10.60;99.90;;;;;;5030570;28;20258;-57
2022/11/15 08:45:35;;;;;;;4.68;3.22;;;10.50;99.90;;;;;;5029204;28;20168;-58
2022/11/15 08:48:02;;;;;;;4.82;3.05;;;10.60;99.90;;;;;;5030393;28;20268;-59
2022/11/15 08:50:28;;;;;;;5.82;3.28;;;10.60;99.90;;;;;;5030264;28;20168;-58
2022/11/15 08:52:53;;;;;;;5.20;2.88;;;10.50;99.90;;;;;;5030097;28;20192;-58
2022/11/15 08:55:19;;;;;;;4.63;2.33;;;10.50;99.90;;;;;;5030579;28;20630;-58
2022/11/15 08:57:45;;;;;;;5.75;3.00;;;10.60;99.90;;;;;;5030416;28;20173;-58
2022/11/15 09:00:12;;;;;;;4.70;3.45;;;10.70;99.90;;;;;;5029111;28;20176;-57
2022/11/15 09:02:39;;;;;;;5.25;2.50;;;10.80;99.90;;;;;;5030300;28;20172;-58
2022/11/15 09:05:06;;;;;;;5.25;2.28;;;11.00;99.90;;;;;;5028936;28;20225;-58
2022/11/15 09:07:31;;;;;;;5.72;2.63;;;11.10;99.90;;;;;;5030307;28;20176;-58
2022/11/15 09:09:57;;;;;;;6.65;2.38;;;11.20;99.90;;;;;;5028983;28;20220;-58
2022/11/15 09:12:24;;;;;;;5.03;2.42;;;11.20;99.90;;;;;;5030139;28;20184;-58
2022/11/15 09:14:50;;;;;;;5.07;2.58;;;11.40;99.90;;;;;;5030107;28;20188;-58
2022/11/15 09:17:15;;;;;;;3.55;2.08;;;11.40;99.90;;;;;;5012497;28;20237;-58
2022/11/15 09:19:41;;;;;;;6.25;2.33;;;11.50;99.90;;;;;;5012265;28;20650;-58
2022/11/15 09:22:07;;;;;;;5.68;2.50;;;11.60;99.90;;;;;;5030172;28;20499;-58
2022/11/15 09:24:34;;;;;;;4.95;2.45;;;11.70;99.90;;;;;;5030985;28;20546;-58
2022/11/15 09:27:00;;;;;;;6.85;2.30;;;11.80;99.90;;;;;;5016204;28;20172;-57
2022/11/15 09:29:26;;;;;;;4.25;1.90;;;11.70;99.90;;;;;;5033476;28;20181;-58
2022/11/15 09:31:54;;;;;;;4.93;2.15;;;11.80;99.90;;;;;;5033428;28;20175;-58
2022/11/15 09:34:20;;;;;;;4.47;1.88;;;11.90;99.90;;;;;;5031971;28;20211;-58
2022/11/15 09:36:46;;;;;;;4.03;1.85;;;11.80;99.90;;;;;;5032357;28;20172;-58
2022/11/15 09:39:12;;;;;;;4.30;2.00;;;11.90;99.90;;;;;;5032230;28;20225;-57
2022/11/15 09:42:01;;;;;;;4.97;2.22;;;12.00;99.90;;;;;;5015641;28;20187;-58
2022/11/15 09:44:30;;;;;;;5.38;1.92;;;12.00;99.90;;;;;;5033192;28;20188;-58
2022/11/15 09:47:01;;;;;;;4.40;2.15;;;12.00;99.90;;;;;;5033115;28;20172;-57
2022/11/15 09:49:29;;;;;;;2.70;1.52;;;12.00;99.90;;;;;;5033361;28;20713;-58
2022/11/15 09:51:55;;;;;;;4.40;2.05;;;12.10;99.90;;;;;;5033188;28;20173;-58
2022/11/15 09:54:27;;;;;;;3.33;1.70;;;12.10;99.90;;;;;;5033043;28;20215;-57
2022/11/15 09:56:53;;;;;;;5.57;1.90;;;12.20;99.90;;;;;;5032926;28;20184;-58
2022/11/15 09:59:51;;;;;;;3.38;1.92;;;12.20;99.90;;;;;;5033017;28;20191;-58
2022/11/15 10:02:29;;;;;;;4.40;1.85;;;12.30;99.90;;;;;;5032923;28;20168;-58
2022/11/15 10:04:58;;;;;;;6.63;2.00;;;12.30;99.90;;;;;;5032911;28;20180;-57
2022/11/15 10:07:30;;;;;;;5.22;1.95;;;12.30;99.90;;;;;;5032728;28;20172;-58
2022/11/15 10:10:18;;;;;;;7.93;2.10;;;12.40;99.90;;;;;;5032794;28;20844;-57
2022/11/15 10:12:47;;;;;;;5.68;1.80;;;12.30;99.90;;;;;;5032749;28;20207;-58
2022/11/15 10:15:15;;;;;;;3.50;1.77;;;12.30;99.90;;;;;;5032721;28;20270;-59
2022/11/15 10:18:09;;;;;;;4.70;1.75;;;12.40;99.90;;;;;;5032527;28;20568;-58
2022/11/15 10:20:57;;;;;;;4.47;1.92;;;12.40;99.90;;;;;;5032314;28;20263;-58
2022/11/15 10:23:23;;;;;;;6.10;2.08;;;12.60;99.90;;;;;;5032950;28;20181;-57
2022/11/15 10:25:57;;;;;;;4.68;2.10;;;12.60;99.90;;;;;;5031315;28;20207;-59
2022/11/15 10:28:29;;;;;;;3.45;1.90;;;12.60;99.90;;;;;;5032501;28;20184;-58
2022/11/15 10:31:00;;;;;;;5.28;1.90;;;12.60;99.90;;;;;;5033082;28;20224;-58
2022/11/15 10:33:38;;;;;;;5.15;1.63;;;12.60;99.90;;;;;;5032599;28;20674;-58
2022/11/15 10:36:13;;;;;;;5.60;2.00;;;12.50;99.90;;;;;;5031954;28;20262;-58
2022/11/15 10:38:48;;;;;;;4.70;1.90;;;12.60;99.90;;;;;;5031134;28;20203;-58
2022/11/15 10:41:16;;;;;;;5.15;1.80;;;12.50;99.90;;;;;;5032176;28;20172;-58
2022/11/15 10:43:42;;;;;;;5.63;2.20;;;12.50;99.90;;;;;;5032450;28;20573;-58
2022/11/15 10:46:21;;;;;;;5.55;2.10;;;12.50;99.90;;;;;;5031074;28;20176;-58
2022/11/15 10:48:46;;;;;;;4.15;1.80;;;12.60;99.90;;;;;;5032484;28;20259;-58
2022/11/15 10:51:29;;;;;;;5.57;1.75;;;12.60;99.90;;;;;;5032113;28;20255;-58
2022/11/15 10:53:59;;;;;;;6.63;2.33;;;12.60;99.90;;;;;;5032013;28;20210;-58
2022/11/15 10:56:26;;;;;;;4.53;1.77;;;12.70;99.90;;;;;;5031960;28;20511;-58
2022/11/15 10:58:57;;;;;;;4.50;1.60;;;12.60;99.90;;;;;;5030938;28;20214;-58
2022/11/15 11:01:25;;;;;;;3.88;1.73;;;12.60;99.90;;;;;;5032040;28;20245;-58
2022/11/15 11:04:08;;;;;;;5.07;1.83;;;12.50;99.90;;;;;;5031883;28;20176;-58
2022/11/15 11:06:53;;;;;;;6.57;1.73;;;12.50;99.90;;;;;;5031886;28;20203;-58
2022/11/15 11:09:42;;;;;;;5.15;1.85;;;12.60;99.90;;;;;;5031813;28;20164;-58
2022/11/15 11:12:11;;;;;;;6.63;1.73;;;12.60;99.90;;;;;;5031829;28;20172;-58
2022/11/15 11:14:39;;;;;;;3.65;1.60;;;12.80;99.90;;;;;;5032038;28;20259;-58
2022/11/15 11:17:40;;;;;;;4.38;1.58;;;12.90;99.90;;;;;;5031890;28;20511;-58
2022/11/15 11:20:32;;;;;;;5.07;1.77;;;13.00;99.90;;;;;;5042354;28;20188;-58
2022/11/15 11:23:33;;;;;;;4.72;1.73;;;13.10;99.90;;;;;;5031641;28;20172;-58
2022/11/15 11:26:14;;;;;;;4.43;1.67;;;13.20;99.90;;;;;;5031714;28;20176;-58
2022/11/15 11:29:02;;;;;;;7.20;1.70;;;13.20;99.90;;;;;;5031618;28;20176;-58
2022/11/15 11:31:27;;;;;;;5.00;1.95;;;13.30;99.90;;;;;;5031820;28;20199;-58
2022/11/15 11:34:30;;;;;;;3.67;1.38;;;13.10;99.90;;;;;;5030268;28;20672;-58
2022/11/15 11:37:12;;;;;;;5.65;1.63;;;13.10;99.90;;;;;;5031551;28;20187;-58
2022/11/15 11:40:10;;;;;;;4.70;1.60;;;13.20;99.90;;;;;;5031781;28;20164;-58
2022/11/15 11:42:58;;;;;;;6.07;1.75;;;13.20;99.90;;;;;;5031412;28;20705;-58
2022/11/15 11:45:36;;;;;;;4.07;1.63;;;13.10;99.90;;;;;;5031417;28;20176;-60
2022/11/15 11:48:13;;;;;;;4.07;1.90;;;13.10;99.90;;;;;;5030429;28;20163;-58
2022/11/15 11:50:41;;;;;;;4.35;1.85;;;13.20;99.90;;;;;;5031376;28;20168;-58
2022/11/15 11:53:39;;;;;;;7.05;2.00;;;13.20;99.90;;;;;;5031388;28;20191;-58
2022/11/15 11:56:19;;;;;;;5.95;1.92;;;13.20;99.90;;;;;;5031040;28;20241;-58
2022/11/15 11:58:47;;;;;;;6.45;1.83;;;13.40;99.90;;;;;;5031239;28;20164;-58
2022/11/15 12:01:24;;;;;;;6.50;2.30;;;13.20;99.90;;;;;;5031148;28;20251;-58
2022/11/15 12:04:08;;;;;;;5.63;2.22;;;13.30;99.90;;;;;;5031100;28;20172;-58
2022/11/15 12:06:43;;;;;;;4.28;1.95;;;13.30;99.90;;;;;;5030903;28;20176;-58
2022/11/15 12:09:21;;;;;;;4.68;2.15;;;13.30;99.90;;;;;;5031151;28;20281;-58
2022/11/15 12:12:01;;;;;;;5.07;1.75;;;13.30;99.90;;;;;;5031203;28;20172;-58
2022/11/15 12:14:42;;;;;;;4.97;1.85;;;13.40;99.90;;;;;;5030781;28;20275;-58
2022/11/15 12:17:12;;;;;;;3.78;2.05;;;13.30;99.90;;;;;;5031092;28;20176;-58
2022/11/15 12:19:38;;;;;;;6.20;1.88;;;13.40;99.90;;;;;;5030974;28;20263;-59
2022/11/15 12:22:22;;;;;;;6.65;1.73;;;13.50;99.90;;;;;;5030635;28;20642;-58
2022/11/15 12:24:58;;;;;;;4.20;1.55;;;13.40;99.90;;;;;;5030836;28;20187;-58
2022/11/15 12:27:27;;;;;;;4.00;1.40;;;13.50;99.90;;;;;;5028236;28;20182;-58
2022/11/15 12:30:01;;;;;;;6.45;1.92;;;13.40;99.90;;;;;;5030453;28;20176;-58
2022/11/15 12:32:28;;;;;;;4.07;1.60;;;13.50;99.90;;;;;;5030543;28;20172;-58
2022/11/15 12:34:56;;;;;;;6.97;1.77;;;13.50;99.90;;;;;;5030574;28;20260;-58
2022/11/15 12:37:34;;;;;;;4.90;1.73;;;13.50;99.90;;;;;;5030710;28;20530;-58
2022/11/15 12:40:20;;;;;;;4.65;1.65;;;13.50;99.90;;;;;;5030497;28;20175;-58
2022/11/15 12:43:13;;;;;;;6.30;1.55;;;13.50;99.90;;;;;;5030533;28;20192;-58
2022/11/15 12:45:41;;;;;;;2.80;1.42;;;13.50;99.90;;;;;;5030474;28;20168;-60
2022/11/15 12:48:15;;;;;;;4.30;1.60;;;13.50;99.90;;;;;;5030081;28;20171;-58
2022/11/15 12:50:50;;;;;;;3.58;1.40;;;13.50;99.90;;;;;;5030259;28;20179;-58
2022/11/15 12:53:32;;;;;;;2.63;1.42;;;13.40;99.90;;;;;;5030246;28;20203;-58
2022/11/15 12:56:14;;;;;;;3.58;1.40;;;13.60;99.90;;;;;;5030306;28;20186;-58
2022/11/15 12:58:51;;;;;;;4.72;1.65;;;13.60;99.90;;;;;;5029807;28;20244;-58
2022/11/15 13:01:35;;;;;;;3.35;1.90;;;13.60;99.90;;;;;;5030321;28;20168;-58
2022/11/15 13:04:18;;;;;;;5.55;1.92;;;13.60;99.90;;;;;;5030376;28;20183;-58
2022/11/15 13:06:44;;;;;;;5.10;1.48;;;13.50;99.90;;;;;;5030104;28;20207;-58
2022/11/15 13:09:34;;;;;;;4.03;1.50;;;13.50;99.90;;;;;;5030022;28;20250;-58
2022/11/15 13:12:07;;;;;;;3.83;1.50;;;13.60;99.90;;;;;;5030121;28;20180;-61
2022/11/15 13:14:54;;;;;;;4.28;1.63;;;13.60;99.90;;;;;;5028809;28;20290;-58
2022/11/15 13:17:23;;;;;;;4.43;1.42;;;13.70;99.90;;;;;;5030170;28;20184;-58
2022/11/15 13:20:01;;;;;;;4.18;1.73;;;13.70;99.90;;;;;;5030039;28;20206;-58
2022/11/15 13:22:54;;;;;;;2.92;1.33;;;13.70;99.90;;;;;;5030080;28;20207;-58
2022/11/15 13:25:41;;;;;;;4.85;1.42;;;13.60;99.90;;;;;;5029922;28;20263;-60
2022/11/15 13:28:17;;;;;;;2.95;1.50;;;13.60;99.90;;;;;;5029997;28;20172;-58
2022/11/15 13:30:55;;;;;;;3.03;1.52;;;13.60;99.90;;;;;;5029943;28;20503;-58
2022/11/15 13:33:30;;;;;;;4.70;1.88;;;13.70;99.90;;;;;;5028577;28;20199;-58
2022/11/15 13:35:58;;;;;;;4.30;1.77;;;13.60;99.90;;;;;;5029832;28;20202;-59
2022/11/15 13:38:37;;;;;;;3.38;1.38;;;13.60;99.90;;;;;;5028474;28;20596;-58
2022/11/15 13:41:22;;;;;;;3.22;1.63;;;13.60;99.90;;;;;;5029822;28;20176;-58
2022/11/15 13:43:49;;;;;;;2.95;1.60;;;13.60;99.90;;;;;;5029675;28;20179;-58
2022/11/15 13:46:21;;;;;;;3.50;1.83;;;13.60;99.90;;;;;;5029719;28;20278;-58
2022/11/15 13:48:55;;;;;;;7.82;3.95;;;13.50;99.90;;;;;;5029682;28;20179;-58
2022/11/15 13:51:24;;;;;;;2.33;1.85;;;13.50;99.90;;;;;;5029289;28;20212;-58
2022/11/15 13:54:12;;;;;;;3.72;1.80;;;13.50;99.90;;;;;;5029036;28;20215;-58
2022/11/15 13:56:41;;;;;;;3.72;1.88;;;13.50;99.90;;;;;;5028839;28;20183;-58
2022/11/15 13:59:28;;;;;;;4.60;1.60;;;13.50;99.90;;;;;;5028779;28;20211;-58
2022/11/15 14:01:56;;;;;;;3.58;1.70;;;13.40;99.90;;;;;;5029436;28;20176;-58
2022/11/15 14:04:24;;;;;;;2.80;1.75;;;13.50;99.90;;;;;;5028174;28;20203;-58
2022/11/15 14:06:56;;;;;;;3.90;2.00;;;13.40;99.90;;;;;;5029386;28;20173;-58
2022/11/15 14:09:40;;;;;;;4.57;2.40;;;13.50;99.90;;;;;;5029314;28;20661;-57
2022/11/15 14:12:29;;;;;;;2.22;1.80;;;13.50;99.90;;;;;;5032558;28;20175;-61
2022/11/15 14:14:54;;;;;;;3.17;2.42;;;13.50;99.90;;;;;;5032741;28;20526;-60
2022/11/15 14:17:29;;;;;;;3.40;1.88;;;13.50;99.90;;;;;;5015512;28;20326;-58
2022/11/15 14:19:56;;;;;;;3.53;2.38;;;13.60;99.90;;;;;;5032627;28;20167;-58
2022/11/15 14:22:28;;;;;;;2.53;2.10;;;13.50;99.90;;;;;;5032517;28;20658;-58
2022/11/15 14:25:21;;;;;;;5.13;2.28;;;13.50;99.90;;;;;;5032628;28;20183;-58
2022/11/15 14:28:14;;;;;;;3.05;2.17;;;13.40;99.90;;;;;;5032249;28;20630;-58